• Join FlightAware (Why Join?)
  • Login
  • US Flag 
08:51PM EST


 

Airport Tracker/Info


-or-


 

Live Flight TrackerFlight Track Log ✈ TAM3128 ✈ 17-Jun-2013 ✈ SBSP / CGH - SBVT / VIX

Flight Track Log - Related Links

Times and Time Zones

All times are in EDT time to prevent confusion due to time zone crossing. See the TAM3128 flight status page for this flight to view local times or setup timezone preferences in your user account.

Time Position Orientation Groundspeed Altitude Reporting Facility
EDT Latitude Longitude Course Direction KTS MPH feet Rate Location/Type
07:48PM -23.6300 -46.6590 17° North  Level FlightAware
07:51PM -23.6300 -46.6580 90° East 120 Level FlightAware
07:52PM -23.6290 -46.6560 61° Northeast 180 Level FlightAware
07:53PM -23.6270 -46.6570 335° Northwest 180 Level FlightAware
07:54PM -23.6260 -46.6580 318° Northwest 180 Level FlightAware
07:54PM -23.6240 -46.6590 335° Northwest 240 Level FlightAware
07:55PM -23.6230 -46.6600 318° Northwest 240 Level FlightAware
07:58PM -23.5039 -46.4205 62° Northeast  Level Estimated
07:59PM -23.4594 -46.3313 61° Northeast  Level Estimated
07:59PM -23.6220 -46.6610 61° Northeast  Level FlightAware
08:01PM -23.5422 -46.5003 62° Northeast  Level Estimated
08:02PM -23.4978 -46.4110 62° Northeast  Level Estimated
08:03PM -23.4533 -46.3219 61° Northeast  Level Estimated
08:04PM -23.4088 -46.2328 61° Northeast  Level Estimated
08:04PM -23.6210 -46.6610 61° Northeast  Level FlightAware
08:07PM -23.5193 -46.4561 62° Northeast  Level Estimated
08:07PM -23.6200 -46.6610 62° Northeast  Level FlightAware
08:08PM -23.6470 -46.6380 142° Southeast 167 192 3,500 2,700 Climbing FlightAware
08:08PM -23.6480 -46.6300 98° East 184 212 3,600 1,080 Climbing FlightAware
08:09PM -23.6390 -46.6110 63° Northeast 208 239 4,100 1,680 Climbing FlightAware
08:09PM -23.6150 -46.5940 33° Northeast 222 255 5,000 1,620 Climbing FlightAware
08:09PM -23.6080 -46.5810 60° Northeast 239 275 5,200 1,320 Climbing FlightAware
08:10PM -23.5970 -46.5480 70° East 281 323 5,900 2,160 Climbing FlightAware
08:10PM -23.5840 -46.5150 67° East 291 335 7,100 2,760 Climbing FlightAware
08:11PM -23.5700 -46.4770 68° East 301 346 8,300 2,640 Climbing FlightAware
08:11PM -23.5530 -46.4310 68° East 311 358 9,800 2,040 Climbing FlightAware
08:12PM -23.5300 -46.3690 68° East 348 400 10,800 1,500 Climbing FlightAware
08:12PM -23.5090 -46.3100 69° East 373 429 11,800 2,160 Climbing FlightAware
08:13PM -23.4800 -46.2280 69° East 379 436 13,700 2,460 Climbing FlightAware
08:14PM -23.4520 -46.1470 69° East 390 449 15,400 2,040 Climbing FlightAware
08:15PM -23.4220 -46.0640 69° East 405 466 16,800 1,920 Climbing FlightAware
08:15PM -23.3940 -45.9840 69° East 410 472 18,200 1,920 Climbing FlightAware
08:16PM -23.3660 -45.9080 68° East 418 481 19,400 1,680 Climbing FlightAware
08:17PM -23.3340 -45.8160 69° East 430 495 20,600 1,680 Climbing FlightAware
08:17PM -23.3050 -45.7370 68° East 435 501 21,800 1,740 Climbing FlightAware
08:18PM -23.2750 -45.6530 69° East 438 504 23,100 1,680 Climbing FlightAware
08:19PM -23.2420 -45.5600 69° East 448 516 24,200 1,560 Climbing FlightAware
08:19PM -23.2120 -45.4770 69° East 455 524 25,200 1,440 Climbing FlightAware
08:20PM -23.1810 -45.3920 68° East 457 526 26,200 1,440 Climbing FlightAware
08:21PM -23.1450 -45.2920 69° East 462 532 27,300 1,380 Climbing FlightAware
08:21PM -23.1130 -45.2050 68° East 467 537 28,200 1,380 Climbing FlightAware
08:22PM -23.0780 -45.1080 69° East 468 539 29,300 1,380 Climbing FlightAware
08:23PM -23.0420 -45.0070 69° East 471 542 30,300 1,020 Climbing FlightAware
08:24PM -23.0110 -44.9220 68° East 481 554 30,800 780 Climbing FlightAware
08:24PM -22.9780 -44.8320 68° East 491 565 31,400 1,020 Climbing FlightAware
08:25PM -22.9460 -44.7430 69° East 490 564 32,200 1,140 Climbing FlightAware
08:26PM -22.9100 -44.6430 69° East 492 566 33,000 1,080 Climbing FlightAware
08:26PM -22.8730 -44.5430 68° East 494 568 33,800 1,020 Climbing FlightAware
08:27PM -22.8390 -44.4510 68° East 496 571 34,500 1,020 Climbing FlightAware
08:28PM -22.8000 -44.3440 68° East 497 572 35,300 1,020 Climbing FlightAware
08:29PM -22.7670 -44.2550 68° East 494 568 36,000 1,020 Climbing FlightAware
08:29PM -22.7280 -44.1480 68° East 493 567 36,700 660 Climbing FlightAware
08:30PM -22.6950 -44.0590 68° East 494 568 37,000 180 Climbing FlightAware
08:31PM -22.6560 -43.9540 68° East 495 570 37,000  Level FlightAware
08:31PM -22.6220 -43.8650 68° East 494 568 37,000  Level FlightAware
08:32PM -22.5650 -43.7720 56° Northeast 493 567 37,000  Level FlightAware
08:33PM -22.5140 -43.6890 56° Northeast 493 567 37,000  Level FlightAware
08:33PM -22.4570 -43.5980 56° Northeast 492 566 37,000  Level FlightAware
08:34PM -22.4070 -43.5160 57° Northeast 491 565 37,000  Level FlightAware
08:35PM -22.3560 -43.4350 56° Northeast 488 562 37,000  Level FlightAware
08:36PM -22.2950 -43.3370 56° Northeast 487 560 37,000  Level FlightAware
08:36PM -22.2450 -43.2560 56° Northeast 485 558 37,000  Level FlightAware
08:37PM -22.1950 -43.1760 56° Northeast 486 559 37,000  Level FlightAware
08:38PM -22.1380 -43.0840 56° Northeast 486 559 37,000  Level FlightAware
08:38PM -22.0870 -43.0030 56° Northeast 486 559 37,000  Level FlightAware
08:39PM -22.0360 -42.9220 56° Northeast 486 559 37,000  Level FlightAware
08:40PM -21.9900 -42.8490 56° Northeast 486 559 37,000  Level FlightAware
08:41PM -21.9110 -42.7220 56° Northeast 487 560 37,000  Level FlightAware
08:41PM -21.8640 -42.6470 56° Northeast 488 562 37,000  Level FlightAware
08:42PM -21.8020 -42.5490 56° Northeast 489 563 37,000  Level FlightAware
08:43PM -21.7500 -42.4680 55° Northeast 489 563 37,000 -420 Level FlightAware
08:43PM -21.7030 -42.3930 56° Northeast 486 559 36,500 -1,020 Descending FlightAware
08:44PM -21.6420 -42.2960 56° Northeast 490 564 35,600 -1,920 Descending FlightAware
08:45PM -21.5880 -42.2120 55° Northeast 496 571 33,700 -2,400 Descending FlightAware
08:46PM -21.5300 -42.1200 56° Northeast 493 567 31,900 -1,980 Descending FlightAware
08:47PM -21.4620 -42.0130 56° Northeast 480 552 30,100 -2,220 Descending FlightAware
08:47PM -21.4000 -41.9170 55° Northeast 469 540 28,400 -2,340 Descending FlightAware
08:48PM -21.3290 -41.8050 56° Northeast 459 528 26,400 -1,620 Descending FlightAware
08:49PM -21.3090 -41.7730 56° Northeast 454 522 25,800 -1,020 Descending FlightAware
08:50PM -21.2820 -41.7320 55° Northeast 450 518 25,100 -1,920 Descending FlightAware
08:50PM -21.2140 -41.6250 56° Northeast 440 506 23,200 -2,340 Descending FlightAware
08:51PM -21.1630 -41.5460 55° Northeast 433 498 21,800 -1,980 Descending FlightAware
08:52PM -21.0950 -41.4400 56° Northeast 423 487 19,900 -1,860 Descending FlightAware
08:53PM -21.0500 -41.3710 55° Northeast 415 478 18,800 -1,680 Descending FlightAware
08:54PM -21.0000 -41.2930 56° Northeast 405 466 17,500 -1,740 Descending FlightAware
08:54PM -20.9610 -41.2330 55° Northeast 396 456 16,400 -1,680 Descending FlightAware
08:55PM -20.9050 -41.1450 56° Northeast 379 436 15,000 -1,560 Descending FlightAware
08:56PM -20.8610 -41.0780 55° Northeast 366 421 13,800 -1,800 Descending FlightAware
08:57PM -20.8220 -41.0150 56° Northeast 365 420 12,400 -1,860 Descending FlightAware
08:57PM -20.7850 -40.9500 59° Northeast 354 407 11,200 -1,500 Descending FlightAware
08:58PM -20.7560 -40.9010 58° Northeast 345 397 10,400 -1,080 Descending FlightAware
08:58PM -20.7300 -40.8590 57° Northeast 324 373 10,000 -900 Descending FlightAware
08:59PM -20.7190 -40.8400 58° Northeast 314 361 9,800 -1,260 Descending FlightAware
08:59PM -20.6970 -40.8020 58° Northeast 306 352 9,200 -1,200 Descending FlightAware
08:59PM -20.6850 -40.7820 57° Northeast 304 350 8,900 -1,320 Descending FlightAware
09:00PM -20.6620 -40.7430 58° Northeast 301 346 8,200 -1,380 Descending FlightAware
09:00PM -20.6460 -40.7170 57° Northeast 301 346 7,700 -1,500 Descending FlightAware
09:01PM -20.6230 -40.6770 58° Northeast 300 345 6,900 -1,440 Descending FlightAware
09:01PM -20.6010 -40.6400 58° Northeast 298 343 6,300 -1,320 Descending FlightAware
09:02PM -20.5840 -40.6130 56° Northeast 296 341 5,800 -1,440 Descending FlightAware
09:02PM -20.5650 -40.5800 58° Northeast 293 337 5,100 -1,140 Descending FlightAware
09:03PM -20.5420 -40.5420 57° Northeast 282 325 4,700 -660 Descending FlightAware
09:03PM -20.5280 -40.5170 59° Northeast 266 306 4,500 -600 Descending FlightAware
09:04PM -20.5070 -40.4810 58° Northeast 243 280 4,200 -660 Descending FlightAware
09:04PM -20.4900 -40.4530 57° Northeast 227 261 3,900 -480 Descending FlightAware
09:04PM -20.4850 -40.4450 56° Northeast 221 254 3,900 -240 Level FlightAware
09:05PM -20.4550 -40.4160 42° Northeast 204 235 3,700 -180 Descending FlightAware
09:05PM -20.4310 -40.4010 30° Northeast 200 230 3,700  Level FlightAware
09:06PM -20.4200 -40.3940 31° Northeast 199 229 3,700 -360 Level FlightAware
09:06PM -20.3990 -40.3810 30° Northeast 175 201 3,500 -780 Descending FlightAware
09:07PM -20.3790 -40.3670 33° Northeast 163 188 3,000 -1,020 Descending FlightAware
09:07PM -20.3650 -40.3570 34° Northeast 152 175 2,600 -960 Descending FlightAware
09:07PM -20.3490 -40.3470 30° Northeast 138 159 2,200 -960 Descending FlightAware
09:08PM -20.3320 -40.3360 31° Northeast 134 154 1,700 -900 Descending FlightAware
09:08PM -20.3160 -40.3250 33° Northeast 131 151 1,300 -840 Descending FlightAware
09:09PM -20.3040 -40.3170 32° Northeast 130 150 1,000 -780 Descending FlightAware
09:09PM -20.2890 -40.3070 32° Northeast 129 148 600 -840 Descending FlightAware
09:10PM -20.2730 -40.2970 30° Northeast 130 150 200 -840 Descending FlightAware
09:10PM -20.2590 -40.2870 34° Northeast 124 143 -420 Descending FlightAware
09:10PM -20.2570 -40.2860 25° Northeast 124 143  Level FlightAware
09:11PM -20.2530 -40.2840 25° Northeast 124 143  Level FlightAware
09:11PM -20.2540 -40.2840 180° South 124 143  Level FlightAware
09:12PM -20.2560 -40.2850 205° Southwest 124 143  Level FlightAware
09:13PM -20.2600 -40.2880 215° Southwest 124 143  Level FlightAware
09:13PM -20.2600 -40.2890 270° West 124 143  Level FlightAware
09:14PM -20.2590 -40.2890 360° North 124 143  Level FlightAware
09:14PM -20.2580 -40.2890 360° North 124 143  Level FlightAware
09:14PM -20.2570 -40.2880 43° Northeast 124 143  Level FlightAware
09:15PM -20.2570 -40.2890 270° West 124 143  Level FlightAware
09:16PM -20.2610 -40.2760 108° East 124 143  Level FlightAware
09:16PM -20.2570 -40.2890 288° West 124 143  Level FlightAware
09:18PM -20.2610 -40.2760 108° East 124 143  Level FlightAware
09:19PM -20.2610 -40.2750 90° East 124 143  Level FlightAware
09:19PM -20.2570 -40.2890 287° West 124 143  Level FlightAware
09:21PM -20.2610 -40.2750 107° East 124 143  Level FlightAware
09:22PM -20.2570 -40.2890 285° West 124 143  Level FlightAware
09:23PM -20.2581 -40.2864 285° West  Level Estimated
09:24PM -20.2610 -40.2750 107° East 124 143  Level FlightAware
09:25PM -20.2570 -40.2890 287° West 124 143  Level FlightAware
09:26PM -20.2610 -40.2760 108° East 124 143  Level FlightAware
09:27PM -20.2610 -40.2750 90° East 124 143  Level FlightAware
09:28PM -20.2610 -40.2760 270° West 124 143  Level FlightAware
09:31PM -20.2581 -40.2864 287° West  Level Estimated
09:31PM -20.2570 -40.2890 287° West  Level FlightAware
09:34PM -20.2581 -40.2864 113° Southeast  Level Estimated
09:35PM -20.2581 -40.2864 13° North  Level Estimated
09:36PM -20.2581 -40.2864 13° North  Level Estimated
09:37PM -20.2581 -40.2864 13° North  Level Estimated
09:38PM -20.2581 -40.2864 13° North  Level Estimated
09:39PM -20.2581 -40.2864 13° North  Level Estimated
09:40PM -20.2581 -40.2864 13° North  Level Estimated
09:41PM -20.2581 -40.2864 13° North  Level Estimated
09:42PM -20.2581 -40.2864 13° North  Level Estimated
09:43PM -20.2581 -40.2864 13° North  Level Estimated
09:44PM -20.2581 -40.2864 13° North  Level Estimated
09:45PM -20.2581 -40.2864 13° North  Level Estimated
09:46PM -20.2581 -40.2864 13° North  Level Estimated